Overview Statistics Trail Chart Weather Telemetry Raw packets
 

This is the latest recevied weather packets stored in our database for station/object KG7FOQ-13. If no packets are shown the sender has not sent any weather packets the latest 10 day(s).

<< 104 105 106 107 108 109 110 >>
Time Temp. Humidity Pressure Rain* Wind** Luminosity Snow
1787822010 18.89° C 63% 1017 hPa 0 mm - - -
1787821710 18.33° C 65% 1016.9 hPa 0 mm - - -
1787821409 17.78° C 65% 1017.1 hPa 0 mm - - -
1787821148 17.78° C 65% 1017.1 hPa 0 mm - - -
1787821109 17.78° C 65% 1017.1 hPa 0 mm - - -
1787820808 18.33° C 64% 1017.1 hPa 0 mm - - -
1787820507 17.78° C 63% 1017 hPa 0 mm - - -
1787820206 18.89° C 61% 1017.1 hPa 0 mm - - -
1787819906 18.89° C 58% 1017.1 hPa 0 mm - - -
1787819605 19.44° C 57% 1017 hPa 0 mm - - -
1787819304 20° C 55% 1017 hPa 0 mm - - -
1787819004 20° C 49% 1017 hPa 0 mm - - -
1787818703 21.11° C 45% 1016.9 hPa 0 mm - - -
1787818403 22.78° C 38% 1016.7 hPa 0 mm - - -
1787818103 23.89° C 34% 1016.7 hPa 0 mm - - -
1787817802 23.89° C 35% 1016.7 hPa 0 mm - - -
1787817500 23.89° C 35% 1016.7 hPa 0 mm - - -
1787817200 23.89° C 35% 1016.7 hPa 0 mm - - -
1787816900 24.44° C 34% 1016.7 hPa 0 mm - - -
1787816599 24.44° C 34% 1016.6 hPa 0 mm - - -
1787816298 24.44° C 34% 1016.7 hPa 0 mm - - -
1787815998 24.44° C 34% 1016.7 hPa 0 mm - - -
1787815697 24.44° C 35% 1016.7 hPa 0 mm - - -
1787815398 23.89° C 35% 1016.6 hPa 0 mm - - -
1787815096 23.33° C 36% 1016.7 hPa 0 mm - - -

* Rain latest hour (hover to see other rain measurements)
** Current wind speed in m/s (hover to see current wind gust speed)